sensor_id;sensor_type;location;lat;lon;timestamp;P1;durP1;ratioP1;P2;durP2;ratioP2
73266;SDS011;61495;53.400;7.608;2022-10-22T00:01:35;13.45;;;8.15;;
73266;SDS011;61495;53.400;7.608;2022-10-22T00:04:01;12.88;;;8.15;;
73266;SDS011;61495;53.400;7.608;2022-10-22T00:06:26;11.73;;;7.10;;
73266;SDS011;61495;53.400;7.608;2022-10-22T00:08:52;12.23;;;6.93;;
73266;SDS011;61495;53.400;7.608;2022-10-22T00:11:18;10.88;;;7.07;;
73266;SDS011;61495;53.400;7.608;2022-10-22T00:13:44;14.02;;;8.30;;
73266;SDS011;61495;53.400;7.608;2022-10-22T00:16:11;13.15;;;7.10;;
73266;SDS011;61495;53.400;7.608;2022-10-22T00:18:37;12.88;;;7.57;;
73266;SDS011;61495;53.400;7.608;2022-10-22T00:21:03;11.82;;;8.43;;
73266;SDS011;61495;53.400;7.608;2022-10-22T00:23:30;11.13;;;6.43;;
73266;SDS011;61495;53.400;7.608;2022-10-22T00:25:55;10.75;;;7.18;;
73266;SDS011;61495;53.400;7.608;2022-10-22T00:28:21;12.52;;;6.88;;
73266;SDS011;61495;53.400;7.608;2022-10-22T00:30:47;12.95;;;7.28;;
73266;SDS011;61495;53.400;7.608;2022-10-22T00:33:12;12.15;;;7.68;;
73266;SDS011;61495;53.400;7.608;2022-10-22T00:35:38;13.65;;;6.30;;
73266;SDS011;61495;53.400;7.608;2022-10-22T00:38:03;11.65;;;6.82;;
73266;SDS011;61495;53.400;7.608;2022-10-22T00:40:29;10.68;;;7.13;;
73266;SDS011;61495;53.400;7.608;2022-10-22T00:42:55;14.23;;;7.63;;
73266;SDS011;61495;53.400;7.608;2022-10-22T00:45:25;10.75;;;6.50;;
73266;SDS011;61495;53.400;7.608;2022-10-22T00:47:53;11.85;;;6.35;;
73266;SDS011;61495;53.400;7.608;2022-10-22T00:53:23;11.73;;;6.30;;
73266;SDS011;61495;53.400;7.608;2022-10-22T00:55:55;12.00;;;6.50;;
73266;SDS011;61495;53.400;7.608;2022-10-22T00:58:22;13.60;;;8.10;;
73266;SDS011;61495;53.400;7.608;2022-10-22T01:00:50;10.82;;;5.78;;
73266;SDS011;61495;53.400;7.608;2022-10-22T01:03:15;13.13;;;8.10;;
73266;SDS011;61495;53.400;7.608;2022-10-22T01:05:42;11.05;;;6.93;;
73266;SDS011;61495;53.400;7.608;2022-10-22T01:11:26;10.50;;;5.50;;
73266;SDS011;61495;53.400;7.608;2022-10-22T01:14:13;10.88;;;6.53;;
73266;SDS011;61495;53.400;7.608;2022-10-22T01:17:00;12.82;;;6.50;;
73266;SDS011;61495;53.400;7.608;2022-10-22T01:22:30;13.13;;;7.00;;
73266;SDS011;61495;53.400;7.608;2022-10-22T01:30:30;11.90;;;7.25;;
73266;SDS011;61495;53.400;7.608;2022-10-22T01:32:58;11.82;;;7.38;;
73266;SDS011;61495;53.400;7.608;2022-10-22T01:35:28;13.45;;;6.60;;
73266;SDS011;61495;53.400;7.608;2022-10-22T01:37:59;10.73;;;6.68;;
73266;SDS011;61495;53.400;7.608;2022-10-22T01:40:28;12.57;;;7.38;;
73266;SDS011;61495;53.400;7.608;2022-10-22T01:42:58;12.48;;;7.07;;
73266;SDS011;61495;53.400;7.608;2022-10-22T01:45:25;14.07;;;8.15;;
73266;SDS011;61495;53.400;7.608;2022-10-22T01:50:40;10.65;;;6.25;;
73266;SDS011;61495;53.400;7.608;2022-10-22T01:53:20;11.73;;;7.00;;
73266;SDS011;61495;53.400;7.608;2022-10-22T02:01:30;11.18;;;6.72;;
73266;SDS011;61495;53.400;7.608;2022-10-22T02:09:00;12.95;;;6.05;;
73266;SDS011;61495;53.400;7.608;2022-10-22T02:11:27;11.10;;;6.15;;
73266;SDS011;61495;53.400;7.608;2022-10-22T02:13:55;13.60;;;7.47;;
73266;SDS011;61495;53.400;7.608;2022-10-22T02:16:29;11.48;;;6.22;;
73266;SDS011;61495;53.400;7.608;2022-10-22T02:19:02;9.65;;;6.22;;
73266;SDS011;61495;53.400;7.608;2022-10-22T02:21:34;11.45;;;7.38;;
73266;SDS011;61495;53.400;7.608;2022-10-22T02:24:00;11.40;;;6.90;;
73266;SDS011;61495;53.400;7.608;2022-10-22T02:26:29;12.07;;;7.47;;
73266;SDS011;61495;53.400;7.608;2022-10-22T02:32:03;13.75;;;8.25;;
73266;SDS011;61495;53.400;7.608;2022-10-22T02:34:32;11.65;;;6.75;;
73266;SDS011;61495;53.400;7.608;2022-10-22T02:36:59;11.65;;;7.00;;
73266;SDS011;61495;53.400;7.608;2022-10-22T02:39:27;12.70;;;7.25;;
73266;SDS011;61495;53.400;7.608;2022-10-22T02:41:55;12.18;;;7.03;;
73266;SDS011;61495;53.400;7.608;2022-10-22T02:44:22;10.75;;;5.85;;
73266;SDS011;61495;53.400;7.608;2022-10-22T02:46:49;11.68;;;6.97;;
73266;SDS011;61495;53.400;7.608;2022-10-22T02:49:15;11.23;;;6.88;;
73266;SDS011;61495;53.400;7.608;2022-10-22T02:51:41;15.05;;;7.85;;
73266;SDS011;61495;53.400;7.608;2022-10-22T02:54:07;13.70;;;7.15;;
73266;SDS011;61495;53.400;7.608;2022-10-22T02:56:33;11.23;;;7.75;;
73266;SDS011;61495;53.400;7.608;2022-10-22T02:58:59;13.27;;;7.43;;
73266;SDS011;61495;53.400;7.608;2022-10-22T03:01:25;13.05;;;7.70;;
73266;SDS011;61495;53.400;7.608;2022-10-22T03:03:51;12.07;;;7.38;;
73266;SDS011;61495;53.400;7.608;2022-10-22T03:06:16;12.65;;;7.07;;
73266;SDS011;61495;53.400;7.608;2022-10-22T03:08:43;13.38;;;7.00;;
73266;SDS011;61495;53.400;7.608;2022-10-22T03:11:09;14.05;;;7.47;;
73266;SDS011;61495;53.400;7.608;2022-10-22T03:13:34;11.52;;;6.32;;
73266;SDS011;61495;53.400;7.608;2022-10-22T03:16:01;11.98;;;7.80;;
73266;SDS011;61495;53.400;7.608;2022-10-22T03:18:27;12.77;;;7.95;;
73266;SDS011;61495;53.400;7.608;2022-10-22T03:21:55;11.25;;;7.45;;
73266;SDS011;61495;53.400;7.608;2022-10-22T03:23:48;12.48;;;8.23;;
73266;SDS011;61495;53.400;7.608;2022-10-22T03:26:15;12.13;;;6.57;;
73266;SDS011;61495;53.400;7.608;2022-10-22T03:28:41;11.35;;;6.25;;
73266;SDS011;61495;53.400;7.608;2022-10-22T03:31:07;9.93;;;6.57;;
73266;SDS011;61495;53.400;7.608;2022-10-22T03:33:33;11.95;;;7.45;;
73266;SDS011;61495;53.400;7.608;2022-10-22T03:35:59;11.45;;;6.82;;
73266;SDS011;61495;53.400;7.608;2022-10-22T03:38:25;12.77;;;7.68;;
73266;SDS011;61495;53.400;7.608;2022-10-22T03:40:52;12.15;;;7.88;;
73266;SDS011;61495;53.400;7.608;2022-10-22T03:43:18;13.57;;;6.45;;
73266;SDS011;61495;53.400;7.608;2022-10-22T03:45:44;12.32;;;7.40;;
73266;SDS011;61495;53.400;7.608;2022-10-22T03:48:10;11.32;;;6.90;;
73266;SDS011;61495;53.400;7.608;2022-10-22T03:50:35;11.25;;;7.38;;
73266;SDS011;61495;53.400;7.608;2022-10-22T03:53:02;11.65;;;6.53;;
73266;SDS011;61495;53.400;7.608;2022-10-22T03:55:28;12.52;;;7.32;;
73266;SDS011;61495;53.400;7.608;2022-10-22T03:57:54;13.90;;;6.20;;
73266;SDS011;61495;53.400;7.608;2022-10-22T04:00:20;12.52;;;7.53;;
73266;SDS011;61495;53.400;7.608;2022-10-22T04:02:46;13.35;;;7.43;;
73266;SDS011;61495;53.400;7.608;2022-10-22T04:05:12;12.65;;;6.68;;
73266;SDS011;61495;53.400;7.608;2022-10-22T04:07:37;11.32;;;6.78;;
73266;SDS011;61495;53.400;7.608;2022-10-22T04:10:03;14.73;;;6.20;;
73266;SDS011;61495;53.400;7.608;2022-10-22T04:12:29;11.50;;;6.80;;
73266;SDS011;61495;53.400;7.608;2022-10-22T04:14:55;12.13;;;7.22;;
73266;SDS011;61495;53.400;7.608;2022-10-22T04:17:21;13.68;;;7.30;;
73266;SDS011;61495;53.400;7.608;2022-10-22T04:19:47;11.88;;;7.63;;
73266;SDS011;61495;53.400;7.608;2022-10-22T04:22:13;12.05;;;7.22;;
73266;SDS011;61495;53.400;7.608;2022-10-22T04:24:38;11.48;;;6.47;;
73266;SDS011;61495;53.400;7.608;2022-10-22T04:27:04;12.32;;;6.95;;
73266;SDS011;61495;53.400;7.608;2022-10-22T04:29:30;12.68;;;6.50;;
73266;SDS011;61495;53.400;7.608;2022-10-22T04:31:56;13.15;;;7.47;;
73266;SDS011;61495;53.400;7.608;2022-10-22T04:34:25;12.98;;;6.57;;
73266;SDS011;61495;53.400;7.608;2022-10-22T04:36:51;12.10;;;6.47;;
73266;SDS011;61495;53.400;7.608;2022-10-22T04:39:17;11.55;;;5.75;;
73266;SDS011;61495;53.400;7.608;2022-10-22T04:41:42;12.18;;;5.57;;
73266;SDS011;61495;53.400;7.608;2022-10-22T04:44:07;13.50;;;6.90;;
73266;SDS011;61495;53.400;7.608;2022-10-22T04:46:33;11.48;;;5.78;;
73266;SDS011;61495;53.400;7.608;2022-10-22T04:48:59;11.73;;;6.72;;
73266;SDS011;61495;53.400;7.608;2022-10-22T04:51:27;13.90;;;7.63;;
73266;SDS011;61495;53.400;7.608;2022-10-22T04:53:53;12.38;;;6.45;;
73266;SDS011;61495;53.400;7.608;2022-10-22T04:56:23;10.27;;;5.93;;
73266;SDS011;61495;53.400;7.608;2022-10-22T04:58:57;12.25;;;6.60;;
73266;SDS011;61495;53.400;7.608;2022-10-22T05:01:29;9.98;;;5.88;;
73266;SDS011;61495;53.400;7.608;2022-10-22T05:03:56;9.73;;;6.07;;
73266;SDS011;61495;53.400;7.608;2022-10-22T05:06:24;11.70;;;6.45;;
73266;SDS011;61495;53.400;7.608;2022-10-22T05:08:51;9.38;;;6.25;;
73266;SDS011;61495;53.400;7.608;2022-10-22T05:11:20;7.93;;;4.95;;
73266;SDS011;61495;53.400;7.608;2022-10-22T05:13:48;12.25;;;6.30;;
73266;SDS011;61495;53.400;7.608;2022-10-22T05:16:13;12.00;;;6.03;;
73266;SDS011;61495;53.400;7.608;2022-10-22T05:18:42;10.48;;;5.78;;
73266;SDS011;61495;53.400;7.608;2022-10-22T05:21:09;11.25;;;6.20;;
73266;SDS011;61495;53.400;7.608;2022-10-22T05:23:37;10.30;;;6.38;;
73266;SDS011;61495;53.400;7.608;2022-10-22T05:26:04;11.50;;;5.72;;
73266;SDS011;61495;53.400;7.608;2022-10-22T05:28:31;13.65;;;6.47;;
73266;SDS011;61495;53.400;7.608;2022-10-22T05:30:58;9.15;;;5.40;;
73266;SDS011;61495;53.400;7.608;2022-10-22T05:33:25;14.45;;;5.72;;
73266;SDS011;61495;53.400;7.608;2022-10-22T05:35:51;11.15;;;6.43;;
73266;SDS011;61495;53.400;7.608;2022-10-22T05:38:17;11.65;;;6.60;;
73266;SDS011;61495;53.400;7.608;2022-10-22T05:40:43;11.77;;;6.22;;
73266;SDS011;61495;53.400;7.608;2022-10-22T05:43:09;11.13;;;6.63;;
73266;SDS011;61495;53.400;7.608;2022-10-22T05:45:41;11.65;;;6.28;;
73266;SDS011;61495;53.400;7.608;2022-10-22T05:48:07;11.60;;;5.32;;
73266;SDS011;61495;53.400;7.608;2022-10-22T05:50:37;12.25;;;5.78;;
73266;SDS011;61495;53.400;7.608;2022-10-22T05:53:04;10.07;;;5.88;;
73266;SDS011;61495;53.400;7.608;2022-10-22T05:55:33;9.85;;;5.70;;
73266;SDS011;61495;53.400;7.608;2022-10-22T05:58:01;10.48;;;5.32;;
73266;SDS011;61495;53.400;7.608;2022-10-22T06:00:29;11.48;;;6.90;;
73266;SDS011;61495;53.400;7.608;2022-10-22T06:02:54;10.52;;;6.05;;
73266;SDS011;61495;53.400;7.608;2022-10-22T06:05:20;11.95;;;6.22;;
73266;SDS011;61495;53.400;7.608;2022-10-22T06:07:45;10.70;;;5.05;;
73266;SDS011;61495;53.400;7.608;2022-10-22T06:10:14;13.57;;;6.32;;
73266;SDS011;61495;53.400;7.608;2022-10-22T06:12:42;12.40;;;7.18;;
73266;SDS011;61495;53.400;7.608;2022-10-22T06:15:11;9.50;;;5.80;;
73266;SDS011;61495;53.400;7.608;2022-10-22T06:17:38;8.93;;;5.40;;
73266;SDS011;61495;53.400;7.608;2022-10-22T06:20:03;10.52;;;5.20;;
73266;SDS011;61495;53.400;7.608;2022-10-22T06:22:29;8.82;;;5.43;;
73266;SDS011;61495;53.400;7.608;2022-10-22T06:24:54;11.73;;;6.07;;
73266;SDS011;61495;53.400;7.608;2022-10-22T06:27:20;11.70;;;4.93;;
73266;SDS011;61495;53.400;7.608;2022-10-22T06:29:46;9.77;;;6.65;;
73266;SDS011;61495;53.400;7.608;2022-10-22T06:32:12;8.57;;;4.60;;
73266;SDS011;61495;53.400;7.608;2022-10-22T06:34:37;9.70;;;5.57;;
73266;SDS011;61495;53.400;7.608;2022-10-22T06:37:03;11.00;;;6.75;;
73266;SDS011;61495;53.400;7.608;2022-10-22T06:39:28;9.10;;;5.35;;
73266;SDS011;61495;53.400;7.608;2022-10-22T06:41:54;9.70;;;5.88;;
73266;SDS011;61495;53.400;7.608;2022-10-22T06:44:19;10.68;;;5.60;;
73266;SDS011;61495;53.400;7.608;2022-10-22T06:46:47;11.20;;;5.28;;
73266;SDS011;61495;53.400;7.608;2022-10-22T06:49:17;9.07;;;5.25;;
73266;SDS011;61495;53.400;7.608;2022-10-22T06:51:44;8.90;;;5.05;;
73266;SDS011;61495;53.400;7.608;2022-10-22T06:54:13;9.65;;;5.20;;
73266;SDS011;61495;53.400;7.608;2022-10-22T06:56:38;10.65;;;4.72;;
73266;SDS011;61495;53.400;7.608;2022-10-22T06:59:04;9.90;;;5.72;;
73266;SDS011;61495;53.400;7.608;2022-10-22T07:01:30;9.88;;;4.90;;
73266;SDS011;61495;53.400;7.608;2022-10-22T07:03:57;10.73;;;5.78;;
73266;SDS011;61495;53.400;7.608;2022-10-22T07:06:23;10.38;;;5.78;;
73266;SDS011;61495;53.400;7.608;2022-10-22T07:08:49;11.18;;;6.30;;
73266;SDS011;61495;53.400;7.608;2022-10-22T07:13:49;10.32;;;5.18;;
73266;SDS011;61495;53.400;7.608;2022-10-22T07:16:16;11.30;;;5.32;;
73266;SDS011;61495;53.400;7.608;2022-10-22T07:18:42;8.98;;;4.70;;
73266;SDS011;61495;53.400;7.608;2022-10-22T07:21:09;8.48;;;5.28;;
73266;SDS011;61495;53.400;7.608;2022-10-22T07:23:35;11.07;;;5.78;;
73266;SDS011;61495;53.400;7.608;2022-10-22T07:26:01;12.85;;;6.15;;
73266;SDS011;61495;53.400;7.608;2022-10-22T07:28:27;13.35;;;6.18;;
73266;SDS011;61495;53.400;7.608;2022-10-22T07:30:54;14.07;;;6.30;;
73266;SDS011;61495;53.400;7.608;2022-10-22T07:33:19;11.77;;;5.30;;
73266;SDS011;61495;53.400;7.608;2022-10-22T07:35:44;11.32;;;5.30;;
73266;SDS011;61495;53.400;7.608;2022-10-22T07:38:10;10.18;;;4.68;;
73266;SDS011;61495;53.400;7.608;2022-10-22T07:40:36;10.98;;;6.03;;
73266;SDS011;61495;53.400;7.608;2022-10-22T07:43:02;12.32;;;5.63;;
73266;SDS011;61495;53.400;7.608;2022-10-22T07:45:28;21.05;;;7.63;;
73266;SDS011;61495;53.400;7.608;2022-10-22T07:47:53;14.10;;;7.70;;
73266;SDS011;61495;53.400;7.608;2022-10-22T07:50:19;15.45;;;7.32;;
73266;SDS011;61495;53.400;7.608;2022-10-22T07:52:44;20.35;;;7.82;;
73266;SDS011;61495;53.400;7.608;2022-10-22T07:55:10;17.67;;;7.72;;
73266;SDS011;61495;53.400;7.608;2022-10-22T07:57:37;144.93;;;36.03;;
73266;SDS011;61495;53.400;7.608;2022-10-22T08:00:04;89.18;;;23.55;;
73266;SDS011;61495;53.400;7.608;2022-10-22T08:02:30;107.57;;;28.00;;
73266;SDS011;61495;53.400;7.608;2022-10-22T08:04:56;102.03;;;27.30;;
73266;SDS011;61495;53.400;7.608;2022-10-22T08:07:22;85.00;;;23.85;;
73266;SDS011;61495;53.400;7.608;2022-10-22T08:09:48;50.00;;;15.48;;
73266;SDS011;61495;53.400;7.608;2022-10-22T08:12:13;43.38;;;15.90;;
73266;SDS011;61495;53.400;7.608;2022-10-22T08:14:38;36.05;;;10.35;;
73266;SDS011;61495;53.400;7.608;2022-10-22T08:17:04;17.77;;;8.73;;
73266;SDS011;61495;53.400;7.608;2022-10-22T08:19:29;22.45;;;9.15;;
73266;SDS011;61495;53.400;7.608;2022-10-22T08:21:56;14.27;;;6.82;;
73266;SDS011;61495;53.400;7.608;2022-10-22T08:24:22;17.05;;;7.93;;
73266;SDS011;61495;53.400;7.608;2022-10-22T08:26:48;10.07;;;4.97;;
73266;SDS011;61495;53.400;7.608;2022-10-22T08:29:13;10.60;;;6.25;;
73266;SDS011;61495;53.400;7.608;2022-10-22T08:31:39;10.90;;;6.28;;
73266;SDS011;61495;53.400;7.608;2022-10-22T08:34:04;11.52;;;6.50;;
73266;SDS011;61495;53.400;7.608;2022-10-22T08:36:30;14.25;;;5.65;;
73266;SDS011;61495;53.400;7.608;2022-10-22T08:38:55;8.52;;;5.60;;
73266;SDS011;61495;53.400;7.608;2022-10-22T08:41:21;14.48;;;5.90;;
73266;SDS011;61495;53.400;7.608;2022-10-22T08:49:09;11.02;;;5.82;;
73266;SDS011;61495;53.400;7.608;2022-10-22T08:51:41;11.55;;;5.68;;
73266;SDS011;61495;53.400;7.608;2022-10-22T09:07:48;13.20;;;5.43;;
73266;SDS011;61495;53.400;7.608;2022-10-22T09:10:18;9.48;;;5.15;;
73266;SDS011;61495;53.400;7.608;2022-10-22T09:12:48;11.13;;;4.50;;
73266;SDS011;61495;53.400;7.608;2022-10-22T09:15:14;11.52;;;5.30;;
73266;SDS011;61495;53.400;7.608;2022-10-22T09:20:48;10.77;;;5.18;;
73266;SDS011;61495;53.400;7.608;2022-10-22T09:23:30;8.90;;;4.78;;
73266;SDS011;61495;53.400;7.608;2022-10-22T09:26:00;11.30;;;5.10;;
73266;SDS011;61495;53.400;7.608;2022-10-22T09:28:26;8.90;;;4.50;;
73266;SDS011;61495;53.400;7.608;2022-10-22T09:30:54;12.40;;;5.22;;
73266;SDS011;61495;53.400;7.608;2022-10-22T09:38:11;10.65;;;4.40;;
73266;SDS011;61495;53.400;7.608;2022-10-22T09:40:50;11.40;;;4.55;;
73266;SDS011;61495;53.400;7.608;2022-10-22T09:43:17;13.13;;;5.07;;
73266;SDS011;61495;53.400;7.608;2022-10-22T09:45:43;12.43;;;4.63;;
73266;SDS011;61495;53.400;7.608;2022-10-22T09:50:47;11.13;;;4.80;;
73266;SDS011;61495;53.400;7.608;2022-10-22T09:53:21;9.15;;;5.40;;
73266;SDS011;61495;53.400;7.608;2022-10-22T09:55:52;23.42;;;17.55;;
73266;SDS011;61495;53.400;7.608;2022-10-22T09:58:19;24.05;;;17.85;;
73266;SDS011;61495;53.400;7.608;2022-10-22T10:00:50;15.02;;;9.02;;
73266;SDS011;61495;53.400;7.608;2022-10-22T10:03:19;15.45;;;8.82;;
73266;SDS011;61495;53.400;7.608;2022-10-22T10:05:48;14.23;;;6.97;;
73266;SDS011;61495;53.400;7.608;2022-10-22T10:08:16;11.93;;;7.40;;
73266;SDS011;61495;53.400;7.608;2022-10-22T10:15:55;9.20;;;4.05;;
73266;SDS011;61495;53.400;7.608;2022-10-22T10:21:24;8.90;;;4.00;;
73266;SDS011;61495;53.400;7.608;2022-10-22T10:26:46;21.92;;;12.45;;
73266;SDS011;61495;53.400;7.608;2022-10-22T10:29:26;13.05;;;6.03;;
73266;SDS011;61495;53.400;7.608;2022-10-22T10:37:29;9.15;;;5.28;;
73266;SDS011;61495;53.400;7.608;2022-10-22T10:42:58;7.97;;;3.88;;
73266;SDS011;61495;53.400;7.608;2022-10-22T10:45:30;19.73;;;11.55;;
73266;SDS011;61495;53.400;7.608;2022-10-22T10:48:16;12.43;;;6.25;;
73266;SDS011;61495;53.400;7.608;2022-10-22T10:59:53;33.55;;;21.83;;
73266;SDS011;61495;53.400;7.608;2022-10-22T11:02:54;35.22;;;21.80;;
73266;SDS011;61495;53.400;7.608;2022-10-22T11:05:39;13.15;;;9.32;;
73266;SDS011;61495;53.400;7.608;2022-10-22T11:08:09;28.75;;;13.75;;
73266;SDS011;61495;53.400;7.608;2022-10-22T11:10:51;17.27;;;8.88;;
73266;SDS011;61495;53.400;7.608;2022-10-22T11:13:39;20.08;;;9.23;;
73266;SDS011;61495;53.400;7.608;2022-10-22T11:18:50;12.30;;;6.22;;
73266;SDS011;61495;53.400;7.608;2022-10-22T11:26:56;8.32;;;3.38;;
73266;SDS011;61495;53.400;7.608;2022-10-22T11:29:32;7.82;;;3.92;;
73266;SDS011;61495;53.400;7.608;2022-10-22T11:32:05;10.13;;;3.78;;
73266;SDS011;61495;53.400;7.608;2022-10-22T11:34:41;8.13;;;3.90;;
73266;SDS011;61495;53.400;7.608;2022-10-22T11:37:10;8.18;;;3.70;;
73266;SDS011;61495;53.400;7.608;2022-10-22T11:39:39;8.77;;;3.70;;
73266;SDS011;61495;53.400;7.608;2022-10-22T11:42:10;7.22;;;3.30;;
73266;SDS011;61495;53.400;7.608;2022-10-22T11:47:25;9.27;;;3.53;;
73266;SDS011;61495;53.400;7.608;2022-10-22T11:55:00;6.97;;;3.90;;
73266;SDS011;61495;53.400;7.608;2022-10-22T11:57:35;8.25;;;3.65;;
73266;SDS011;61495;53.400;7.608;2022-10-22T12:00:20;7.78;;;4.50;;
73266;SDS011;61495;53.400;7.608;2022-10-22T12:03:02;8.90;;;5.25;;
73266;SDS011;61495;53.400;7.608;2022-10-22T12:05:40;8.88;;;4.18;;
73266;SDS011;61495;53.400;7.608;2022-10-22T12:10:35;8.80;;;3.85;;
73266;SDS011;61495;53.400;7.608;2022-10-22T12:13:24;8.88;;;3.53;;
73266;SDS011;61495;53.400;7.608;2022-10-22T12:15:53;9.07;;;3.78;;
73266;SDS011;61495;53.400;7.608;2022-10-22T12:18:40;7.45;;;4.25;;
73266;SDS011;61495;53.400;7.608;2022-10-22T12:21:11;8.23;;;3.47;;
73266;SDS011;61495;53.400;7.608;2022-10-22T12:23:38;7.68;;;4.00;;
73266;SDS011;61495;53.400;7.608;2022-10-22T12:26:04;7.55;;;4.13;;
73266;SDS011;61495;53.400;7.608;2022-10-22T12:28:36;9.55;;;5.05;;
73266;SDS011;61495;53.400;7.608;2022-10-22T12:31:05;8.23;;;4.32;;
73266;SDS011;61495;53.400;7.608;2022-10-22T12:33:39;7.95;;;4.40;;
73266;SDS011;61495;53.400;7.608;2022-10-22T12:36:05;9.60;;;4.28;;
73266;SDS011;61495;53.400;7.608;2022-10-22T12:38:30;7.00;;;4.13;;
73266;SDS011;61495;53.400;7.608;2022-10-22T12:40:56;6.78;;;3.95;;
73266;SDS011;61495;53.400;7.608;2022-10-22T12:43:26;7.50;;;4.10;;
73266;SDS011;61495;53.400;7.608;2022-10-22T12:45:54;6.78;;;4.00;;
73266;SDS011;61495;53.400;7.608;2022-10-22T12:48:36;6.85;;;4.05;;
73266;SDS011;61495;53.400;7.608;2022-10-22T12:51:04;8.38;;;4.47;;
73266;SDS011;61495;53.400;7.608;2022-10-22T12:53:35;7.30;;;4.18;;
73266;SDS011;61495;53.400;7.608;2022-10-22T12:56:04;9.55;;;4.47;;
73266;SDS011;61495;53.400;7.608;2022-10-22T12:58:43;7.82;;;4.80;;
73266;SDS011;61495;53.400;7.608;2022-10-22T13:01:12;8.63;;;4.20;;
73266;SDS011;61495;53.400;7.608;2022-10-22T13:03:43;10.40;;;3.80;;
73266;SDS011;61495;53.400;7.608;2022-10-22T13:06:23;7.88;;;4.20;;
73266;SDS011;61495;53.400;7.608;2022-10-22T13:11:30;7.93;;;3.45;;
73266;SDS011;61495;53.400;7.608;2022-10-22T13:14:04;9.45;;;4.47;;
73266;SDS011;61495;53.400;7.608;2022-10-22T13:19:31;7.97;;;4.27;;
73266;SDS011;61495;53.400;7.608;2022-10-22T13:22:01;9.32;;;4.50;;
73266;SDS011;61495;53.400;7.608;2022-10-22T13:24:27;10.85;;;4.45;;
73266;SDS011;61495;53.400;7.608;2022-10-22T13:26:54;7.65;;;4.32;;
73266;SDS011;61495;53.400;7.608;2022-10-22T13:29:20;8.98;;;4.07;;
73266;SDS011;61495;53.400;7.608;2022-10-22T13:31:49;12.45;;;4.10;;
73266;SDS011;61495;53.400;7.608;2022-10-22T13:34:20;10.68;;;3.95;;
73266;SDS011;61495;53.400;7.608;2022-10-22T13:36:48;9.75;;;4.25;;
73266;SDS011;61495;53.400;7.608;2022-10-22T13:39:18;7.43;;;4.07;;
73266;SDS011;61495;53.400;7.608;2022-10-22T13:41:46;11.38;;;4.15;;
73266;SDS011;61495;53.400;7.608;2022-10-22T13:44:14;9.50;;;4.20;;
73266;SDS011;61495;53.400;7.608;2022-10-22T13:46:40;11.80;;;4.90;;
73266;SDS011;61495;53.400;7.608;2022-10-22T13:49:16;9.38;;;4.50;;
73266;SDS011;61495;53.400;7.608;2022-10-22T13:54:17;9.50;;;4.90;;
73266;SDS011;61495;53.400;7.608;2022-10-22T13:56:46;8.57;;;4.13;;
73266;SDS011;61495;53.400;7.608;2022-10-22T13:59:12;6.13;;;3.70;;
73266;SDS011;61495;53.400;7.608;2022-10-22T14:01:38;8.68;;;3.72;;
73266;SDS011;61495;53.400;7.608;2022-10-22T14:04:05;6.95;;;3.88;;
73266;SDS011;61495;53.400;7.608;2022-10-22T14:06:34;7.55;;;3.58;;
73266;SDS011;61495;53.400;7.608;2022-10-22T14:09:01;10.80;;;4.88;;
73266;SDS011;61495;53.400;7.608;2022-10-22T14:11:29;10.82;;;4.50;;
73266;SDS011;61495;53.400;7.608;2022-10-22T14:13:56;9.35;;;4.35;;
73266;SDS011;61495;53.400;7.608;2022-10-22T14:16:22;7.82;;;3.95;;
73266;SDS011;61495;53.400;7.608;2022-10-22T14:18:50;7.72;;;4.32;;
73266;SDS011;61495;53.400;7.608;2022-10-22T14:21:17;6.45;;;3.60;;
73266;SDS011;61495;53.400;7.608;2022-10-22T14:23:44;5.93;;;3.50;;
73266;SDS011;61495;53.400;7.608;2022-10-22T14:26:22;8.20;;;4.00;;
73266;SDS011;61495;53.400;7.608;2022-10-22T14:28:52;6.35;;;4.03;;
73266;SDS011;61495;53.400;7.608;2022-10-22T14:31:18;9.30;;;3.88;;
73266;SDS011;61495;53.400;7.608;2022-10-22T14:33:43;8.95;;;4.70;;
73266;SDS011;61495;53.400;7.608;2022-10-22T14:36:13;8.82;;;4.43;;
73266;SDS011;61495;53.400;7.608;2022-10-22T14:38:43;7.38;;;4.70;;
73266;SDS011;61495;53.400;7.608;2022-10-22T14:41:15;5.15;;;3.50;;
73266;SDS011;61495;53.400;7.608;2022-10-22T14:43:44;9.25;;;4.35;;
73266;SDS011;61495;53.400;7.608;2022-10-22T14:46:10;7.95;;;4.18;;
73266;SDS011;61495;53.400;7.608;2022-10-22T14:48:37;8.00;;;3.50;;
73266;SDS011;61495;53.400;7.608;2022-10-22T14:51:03;6.18;;;4.10;;
73266;SDS011;61495;53.400;7.608;2022-10-22T14:53:29;8.90;;;4.38;;
73266;SDS011;61495;53.400;7.608;2022-10-22T14:55:55;7.00;;;3.67;;
73266;SDS011;61495;53.400;7.608;2022-10-22T14:58:23;7.07;;;3.85;;
73266;SDS011;61495;53.400;7.608;2022-10-22T15:00:48;6.07;;;3.45;;
73266;SDS011;61495;53.400;7.608;2022-10-22T15:03:13;10.30;;;3.78;;
73266;SDS011;61495;53.400;7.608;2022-10-22T15:05:39;6.68;;;3.13;;
73266;SDS011;61495;53.400;7.608;2022-10-22T15:08:09;6.30;;;3.25;;
73266;SDS011;61495;53.400;7.608;2022-10-22T15:10:36;4.72;;;2.65;;
73266;SDS011;61495;53.400;7.608;2022-10-22T15:13:01;5.57;;;3.22;;
73266;SDS011;61495;53.400;7.608;2022-10-22T15:15:27;6.35;;;3.30;;
73266;SDS011;61495;53.400;7.608;2022-10-22T15:17:53;5.45;;;3.53;;
73266;SDS011;61495;53.400;7.608;2022-10-22T15:20:19;7.07;;;3.88;;
73266;SDS011;61495;53.400;7.608;2022-10-22T15:22:45;7.78;;;3.38;;
73266;SDS011;61495;53.400;7.608;2022-10-22T15:25:10;10.80;;;3.78;;
73266;SDS011;61495;53.400;7.608;2022-10-22T15:27:37;5.25;;;3.25;;
73266;SDS011;61495;53.400;7.608;2022-10-22T15:30:03;6.25;;;3.03;;
73266;SDS011;61495;53.400;7.608;2022-10-22T15:32:30;7.78;;;3.42;;
73266;SDS011;61495;53.400;7.608;2022-10-22T15:34:57;7.47;;;3.35;;
73266;SDS011;61495;53.400;7.608;2022-10-22T15:37:23;8.23;;;3.42;;
73266;SDS011;61495;53.400;7.608;2022-10-22T15:39:49;7.47;;;3.58;;
73266;SDS011;61495;53.400;7.608;2022-10-22T15:42:15;13.93;;;4.25;;
73266;SDS011;61495;53.400;7.608;2022-10-22T15:44:42;9.05;;;3.22;;
73266;SDS011;61495;53.400;7.608;2022-10-22T15:47:08;10.50;;;3.13;;
73266;SDS011;61495;53.400;7.608;2022-10-22T15:49:35;7.13;;;3.75;;
73266;SDS011;61495;53.400;7.608;2022-10-22T15:52:02;10.88;;;4.20;;
73266;SDS011;61495;53.400;7.608;2022-10-22T15:54:29;9.55;;;3.80;;
73266;SDS011;61495;53.400;7.608;2022-10-22T15:56:55;11.50;;;3.80;;
73266;SDS011;61495;53.400;7.608;2022-10-22T15:59:21;8.38;;;3.85;;
73266;SDS011;61495;53.400;7.608;2022-10-22T16:01:48;7.93;;;3.05;;
73266;SDS011;61495;53.400;7.608;2022-10-22T16:04:14;6.78;;;3.92;;
73266;SDS011;61495;53.400;7.608;2022-10-22T16:06:44;6.80;;;3.00;;
73266;SDS011;61495;53.400;7.608;2022-10-22T16:09:13;7.72;;;3.97;;
73266;SDS011;61495;53.400;7.608;2022-10-22T16:11:40;6.35;;;3.10;;
73266;SDS011;61495;53.400;7.608;2022-10-22T16:14:07;7.20;;;3.28;;
73266;SDS011;61495;53.400;7.608;2022-10-22T16:16:34;5.85;;;2.83;;
73266;SDS011;61495;53.400;7.608;2022-10-22T16:19:03;5.97;;;3.03;;
73266;SDS011;61495;53.400;7.608;2022-10-22T16:21:29;4.75;;;3.28;;
73266;SDS011;61495;53.400;7.608;2022-10-22T16:23:54;7.03;;;3.20;;
73266;SDS011;61495;53.400;7.608;2022-10-22T16:26:20;6.03;;;2.85;;
73266;SDS011;61495;53.400;7.608;2022-10-22T16:28:46;9.23;;;3.58;;
73266;SDS011;61495;53.400;7.608;2022-10-22T16:31:13;7.85;;;3.10;;
73266;SDS011;61495;53.400;7.608;2022-10-22T16:33:42;7.50;;;3.05;;
73266;SDS011;61495;53.400;7.608;2022-10-22T16:36:08;6.60;;;2.97;;
73266;SDS011;61495;53.400;7.608;2022-10-22T16:38:34;7.10;;;2.63;;
73266;SDS011;61495;53.400;7.608;2022-10-22T16:41:16;6.32;;;2.33;;
73266;SDS011;61495;53.400;7.608;2022-10-22T16:43:44;5.78;;;2.55;;